createdAt,value
2023-02-21T00:00:06.613Z,945.00
2023-02-21T00:01:06.648Z,944.00
2023-02-21T00:02:06.708Z,944.00
2023-02-21T00:03:06.691Z,937.00
2023-02-21T00:04:06.733Z,933.00
2023-02-21T00:05:06.855Z,931.00
2023-02-21T00:06:06.810Z,930.00
2023-02-21T00:07:07.149Z,931.00
2023-02-21T00:08:06.821Z,929.00
2023-02-21T00:09:06.855Z,932.00
2023-02-21T00:10:06.893Z,935.00
2023-02-21T00:11:06.917Z,935.00
2023-02-21T00:12:06.954Z,936.00
2023-02-21T00:13:06.983Z,936.00
2023-02-21T00:14:07.072Z,934.00
2023-02-21T00:15:07.048Z,932.00
2023-02-21T00:16:07.081Z,929.00
2023-02-21T00:17:07.112Z,928.00
2023-02-21T00:18:07.138Z,927.00
2023-02-21T00:19:07.188Z,925.00
2023-02-21T00:20:07.195Z,923.00
2023-02-21T00:21:07.286Z,921.00
2023-02-21T00:22:07.256Z,918.00
2023-02-21T00:23:07.333Z,915.00
2023-02-21T00:24:07.414Z,913.00
2023-02-21T00:25:07.481Z,918.00
2023-02-21T00:27:07.633Z,918.00
2023-02-21T00:28:07.705Z,916.00
2023-02-21T00:29:07.789Z,914.00
2023-02-21T00:30:07.910Z,913.00
2023-02-21T01:24:12.053Z,869.00
2023-02-21T01:25:12.140Z,870.00
2023-02-21T01:26:12.218Z,870.00
2023-02-21T01:27:12.297Z,872.00
2023-02-21T01:28:12.369Z,871.00
2023-02-21T01:29:12.449Z,870.00
2023-02-21T01:30:12.541Z,868.00
2023-02-21T01:31:12.946Z,868.00
2023-02-21T01:32:12.703Z,874.00
2023-02-21T01:33:12.766Z,873.00
2023-02-21T01:34:12.836Z,878.00
2023-02-21T01:35:13.189Z,880.00
2023-02-21T01:36:13.000Z,877.00
2023-02-21T01:37:13.058Z,871.00
2023-02-21T01:38:13.140Z,872.00
2023-02-21T01:39:13.221Z,871.00
2023-02-21T01:40:13.305Z,873.00
2023-02-21T01:41:13.842Z,872.00
2023-02-21T01:42:13.448Z,874.00
2023-02-21T01:43:13.531Z,874.00
2023-02-21T01:44:13.607Z,873.00
2023-02-21T01:45:13.689Z,872.00
2023-02-21T01:46:13.859Z,870.00
2023-02-21T01:47:13.825Z,869.00
2023-02-21T01:48:13.903Z,865.00
2023-02-21T01:49:13.974Z,862.00
2023-02-21T01:50:14.059Z,859.00
2023-02-21T01:51:14.358Z,856.00
2023-02-21T01:52:14.209Z,854.00
2023-02-21T01:53:14.289Z,851.00
2023-02-21T01:54:14.371Z,850.00
2023-02-21T01:55:14.461Z,845.00
2023-02-21T01:56:14.605Z,845.00
2023-02-21T01:57:14.619Z,843.00
2023-02-21T01:58:14.710Z,846.00
2023-02-21T01:59:14.781Z,846.00
2023-02-21T02:00:14.872Z,845.00
2023-02-21T02:01:15.310Z,841.00
2023-02-21T02:17:16.761Z,838.00
2023-02-21T02:18:16.381Z,833.00
2023-02-21T02:19:16.423Z,833.00
2023-02-21T02:20:16.474Z,833.00
2023-02-21T02:21:16.898Z,834.00
2023-02-21T02:22:16.693Z,836.00
2023-02-21T02:23:16.704Z,835.00
2023-02-21T02:24:16.832Z,837.00
2023-02-21T02:25:16.860Z,837.00
2023-02-21T02:26:16.937Z,836.00
2023-02-21T02:27:17.021Z,836.00
2023-02-21T02:28:17.094Z,839.00
2023-02-21T02:29:17.175Z,840.00
2023-02-21T02:30:17.308Z,835.00
2023-02-21T02:31:17.765Z,833.00
2023-02-21T02:32:17.470Z,830.00
2023-02-21T02:33:17.490Z,830.00
2023-02-21T02:34:17.569Z,829.00
2023-02-21T02:35:17.640Z,828.00
2023-02-21T02:36:17.719Z,824.00
2023-02-21T02:37:17.794Z,823.00
2023-02-21T02:38:17.875Z,820.00
2023-02-21T02:39:17.956Z,821.00
2023-02-21T02:40:18.026Z,817.00
2023-02-21T02:41:18.103Z,814.00
2023-02-21T02:42:18.195Z,811.00
2023-02-21T02:43:18.266Z,807.00
2023-02-21T02:44:18.364Z,806.00
2023-02-21T02:45:18.501Z,809.00
2023-02-21T02:46:18.518Z,811.00
2023-02-21T02:47:18.574Z,809.00
2023-02-21T02:48:18.665Z,807.00
2023-02-21T02:49:18.748Z,805.00
2023-02-21T02:50:18.816Z,807.00
2023-02-21T02:51:18.895Z,805.00
2023-02-21T02:52:18.980Z,806.00
2023-02-21T02:53:19.214Z,806.00
2023-02-21T02:54:19.135Z,807.00
2023-02-21T02:55:19.276Z,806.00
2023-02-21T02:56:19.313Z,804.00
2023-02-21T02:57:19.459Z,802.00
2023-02-21T02:58:19.471Z,800.00
2023-02-21T02:59:19.551Z,802.00
2023-02-21T03:00:19.666Z,804.00
2023-02-21T03:01:19.762Z,802.00
2023-02-21T03:02:19.798Z,804.00
2023-02-21T03:03:19.956Z,803.00
2023-02-21T03:04:19.965Z,804.00
2023-02-21T03:05:20.044Z,807.00
2023-02-21T03:06:20.119Z,807.00
2023-02-21T03:07:20.206Z,805.00
2023-02-21T03:08:20.285Z,804.00
2023-02-21T03:10:20.448Z,801.00
2023-02-21T03:11:20.562Z,801.00
2023-02-21T03:12:20.601Z,798.00
2023-02-21T03:13:20.666Z,800.00
2023-02-21T03:14:20.772Z,802.00
2023-02-21T03:15:20.833Z,803.00
2023-02-21T03:16:20.944Z,806.00
2023-02-21T03:17:20.980Z,804.00
2023-02-21T03:18:21.078Z,801.00
2023-02-21T03:19:21.145Z,799.00
2023-02-21T03:20:21.221Z,797.00
2023-02-21T03:21:21.290Z,797.00
2023-02-21T03:22:21.368Z,792.00
2023-02-21T03:23:21.450Z,790.00
2023-02-21T03:24:21.528Z,790.00
2023-02-21T03:25:21.611Z,790.00
2023-02-21T03:26:21.693Z,790.00
2023-02-21T03:27:21.771Z,790.00
2023-02-21T03:28:21.953Z,795.00
2023-02-21T03:29:21.909Z,795.00
2023-02-21T03:30:22.080Z,790.00
2023-02-21T03:31:22.108Z,791.00
2023-02-21T03:32:22.229Z,791.00
2023-02-21T03:33:22.236Z,789.00
2023-02-21T03:34:22.371Z,792.00
2023-02-21T03:36:22.489Z,790.00
2023-02-21T03:37:22.560Z,789.00
2023-02-21T03:38:22.638Z,788.00
2023-02-21T03:39:22.725Z,786.00
2023-02-21T03:40:22.797Z,787.00
2023-02-21T03:41:22.894Z,787.00
2023-02-21T03:42:22.950Z,786.00
2023-02-21T03:43:23.024Z,783.00
2023-02-21T03:44:23.200Z,786.00
2023-02-21T03:45:23.192Z,791.00
2023-02-21T03:46:23.263Z,790.00
2023-02-21T03:47:23.384Z,787.00
2023-02-21T03:48:31.832Z,788.00
2023-02-21T03:50:23.495Z,786.00
2023-02-21T03:52:23.549Z,782.00
2023-02-21T03:53:23.572Z,786.00
2023-02-21T03:54:23.609Z,786.00
2023-02-21T03:56:28.087Z,783.00
2023-02-21T03:58:23.722Z,776.00
2023-02-21T03:59:23.789Z,774.00
2023-02-21T04:00:23.789Z,773.00
2023-02-21T04:01:23.876Z,772.00
2023-02-21T04:02:23.875Z,773.00
2023-02-21T04:03:23.877Z,773.00
2023-02-21T04:05:23.951Z,771.00
2023-02-21T04:06:23.990Z,770.00
2023-02-21T04:07:23.995Z,770.00
2023-02-21T04:08:24.018Z,772.00
2023-02-21T04:09:24.092Z,771.00
2023-02-21T04:10:24.163Z,769.00
2023-02-21T04:11:24.220Z,770.00
2023-02-21T04:12:24.277Z,770.00
2023-02-21T04:13:24.421Z,771.00
2023-02-21T04:14:24.484Z,771.00
2023-02-21T04:15:24.447Z,770.00
2023-02-21T04:16:24.563Z,769.00
2023-02-21T04:17:24.612Z,775.00
2023-02-21T04:18:24.641Z,777.00
2023-02-21T04:19:24.697Z,777.00
2023-02-21T04:20:25.244Z,775.00
2023-02-21T04:21:24.804Z,776.00
2023-02-21T04:22:24.989Z,770.00
2023-02-21T04:23:24.919Z,768.00
2023-02-21T04:24:24.961Z,764.00
2023-02-21T04:25:25.012Z,763.00
2023-02-21T04:26:25.073Z,766.00
2023-02-21T04:27:25.253Z,765.00
2023-02-21T04:28:25.155Z,764.00
2023-02-21T04:29:25.210Z,764.00
2023-02-21T04:30:25.385Z,765.00
2023-02-21T04:31:26.258Z,764.00
2023-02-21T04:32:25.537Z,762.00
2023-02-21T04:33:25.405Z,763.00
2023-02-21T04:34:25.452Z,766.00
2023-02-21T04:35:25.487Z,770.00
2023-02-21T04:36:25.758Z,770.00
2023-02-21T04:37:25.579Z,770.00
2023-02-21T04:38:25.620Z,767.00
2023-02-21T04:39:25.674Z,765.00
2023-02-21T04:40:25.711Z,765.00
2023-02-21T04:41:25.764Z,762.00
2023-02-21T04:42:25.813Z,765.00
2023-02-21T04:43:25.858Z,767.00
2023-02-21T04:44:25.904Z,774.00
2023-02-21T04:45:25.940Z,770.00
2023-02-21T04:46:26.003Z,765.00
2023-02-21T04:47:26.033Z,761.00
2023-02-21T04:48:26.063Z,758.00
2023-02-21T04:49:26.096Z,757.00
2023-02-21T04:50:26.144Z,756.00
2023-02-21T04:51:26.184Z,758.00
2023-02-21T04:52:26.232Z,756.00
2023-02-21T04:53:26.260Z,757.00
2023-02-21T04:54:26.283Z,754.00
2023-02-21T04:55:26.328Z,751.00
2023-02-21T04:56:26.410Z,751.00
2023-02-21T04:57:26.395Z,753.00
2023-02-21T04:58:29.101Z,750.00
2023-02-21T04:59:26.518Z,750.00
2023-02-21T05:00:26.452Z,748.00
2023-02-21T05:01:26.493Z,746.00
2023-02-21T05:02:26.486Z,744.00
2023-02-21T05:03:26.808Z,744.00
2023-02-21T05:04:26.531Z,744.00
2023-02-21T05:05:26.548Z,745.00
2023-02-21T05:06:26.567Z,747.00
2023-02-21T05:07:26.575Z,749.00
2023-02-21T05:08:28.774Z,749.00
2023-02-21T05:09:26.694Z,749.00
2023-02-21T05:10:36.671Z,745.00
2023-02-21T05:11:27.630Z,741.00
2023-02-21T05:12:26.661Z,742.00
2023-02-21T05:13:26.692Z,743.00
2023-02-21T05:14:26.703Z,743.00
2023-02-21T05:15:26.722Z,744.00
2023-02-21T05:16:26.761Z,743.00
2023-02-21T05:17:26.763Z,742.00
2023-02-21T05:18:26.796Z,741.00
2023-02-21T05:19:26.804Z,739.00
2023-02-21T05:20:26.830Z,739.00
2023-02-21T05:21:26.844Z,739.00
2023-02-21T05:22:26.868Z,737.00
2023-02-21T05:23:26.893Z,734.00
2023-02-21T05:24:26.913Z,734.00
2023-02-21T05:25:26.939Z,733.00
2023-02-21T05:26:26.965Z,730.00
2023-02-21T05:27:26.957Z,727.00
2023-02-21T05:28:26.981Z,726.00
2023-02-21T05:29:27.000Z,726.00
2023-02-21T05:30:27.095Z,727.00
2023-02-21T05:31:27.090Z,727.00
2023-02-21T05:32:27.083Z,729.00
2023-02-21T05:33:27.094Z,723.00
2023-02-21T05:34:27.109Z,723.00
2023-02-21T05:35:27.219Z,724.00
2023-02-21T05:36:27.150Z,726.00
2023-02-21T05:37:27.179Z,724.00
2023-02-21T05:38:27.215Z,724.00
2023-02-21T05:39:27.249Z,722.00
2023-02-21T05:40:27.222Z,721.00
2023-02-21T05:41:27.242Z,721.00
2023-02-21T05:42:27.265Z,720.00
2023-02-21T05:43:29.061Z,721.00
2023-02-21T05:44:27.330Z,722.00
2023-02-21T05:45:27.361Z,724.00
2023-02-21T05:46:27.398Z,724.00
2023-02-21T05:47:27.443Z,723.00
2023-02-21T05:48:27.469Z,721.00
2023-02-21T05:49:27.678Z,721.00
2023-02-21T05:50:27.545Z,718.00
2023-02-21T05:51:27.597Z,720.00
2023-02-21T05:52:27.632Z,719.00
2023-02-21T05:53:27.673Z,718.00
2023-02-21T05:54:27.725Z,720.00
2023-02-21T05:55:27.844Z,720.00
2023-02-21T05:56:27.788Z,723.00
2023-02-21T05:57:27.827Z,720.00
2023-02-21T05:58:27.876Z,720.00
2023-02-21T05:59:27.909Z,723.00
2023-02-21T06:00:27.950Z,720.00
2023-02-21T06:01:27.986Z,720.00
2023-02-21T06:02:28.046Z,719.00
2023-02-21T06:03:28.068Z,717.00
2023-02-21T06:04:28.099Z,720.00
2023-02-21T06:05:28.128Z,719.00
2023-02-21T06:06:28.173Z,720.00
2023-02-21T06:07:28.804Z,719.00
2023-02-21T06:08:28.254Z,719.00
2023-02-21T06:09:28.288Z,719.00
2023-02-21T06:10:28.331Z,719.00
2023-02-21T06:11:28.369Z,719.00
2023-02-21T06:12:28.400Z,717.00
2023-02-21T06:13:28.436Z,716.00
2023-02-21T06:14:28.482Z,715.00
2023-02-21T06:15:28.520Z,716.00
2023-02-21T06:16:28.540Z,783.00
2023-02-21T06:17:28.635Z,779.00
2023-02-21T06:18:28.625Z,775.00
2023-02-21T06:19:28.662Z,858.00
2023-02-21T06:20:28.709Z,850.00
2023-02-21T06:21:28.821Z,836.00
2023-02-21T06:22:28.781Z,823.00
2023-02-21T06:23:28.834Z,1002.00
2023-02-21T06:24:28.858Z,871.00
2023-02-21T06:25:28.953Z,805.00
2023-02-21T06:26:28.954Z,810.00
2023-02-21T06:27:28.970Z,811.00
2023-02-21T06:28:29.068Z,804.00
2023-02-21T06:29:29.043Z,793.00
2023-02-21T06:30:29.112Z,785.00
2023-02-21T06:31:29.152Z,785.00
2023-02-21T06:32:29.172Z,783.00
2023-02-21T06:33:29.200Z,782.00
2023-02-21T06:34:29.338Z,780.00
2023-02-21T06:35:29.289Z,779.00
2023-02-21T06:36:29.334Z,778.00
2023-02-21T06:37:29.363Z,779.00
2023-02-21T06:38:29.408Z,779.00
2023-02-21T06:39:29.443Z,779.00
2023-02-21T06:40:29.487Z,781.00
2023-02-21T06:41:29.610Z,781.00
2023-02-21T06:42:29.565Z,780.00
2023-02-21T06:43:29.691Z,779.00
2023-02-21T06:44:29.662Z,781.00
2023-02-21T06:45:29.690Z,777.00
2023-02-21T06:46:29.804Z,775.00
2023-02-21T06:47:29.766Z,772.00
2023-02-21T06:48:29.859Z,767.00
2023-02-21T06:49:29.864Z,765.00
2023-02-21T06:50:29.902Z,767.00
2023-02-21T06:51:30.184Z,766.00
2023-02-21T06:52:29.985Z,764.00
2023-02-21T06:53:30.022Z,762.00
2023-02-21T06:54:30.064Z,763.00
2023-02-21T06:55:30.128Z,762.00
2023-02-21T06:56:30.159Z,759.00
2023-02-21T06:57:30.209Z,756.00
2023-02-21T06:58:30.244Z,755.00
2023-02-21T06:59:30.306Z,754.00
2023-02-21T07:00:30.314Z,757.00
2023-02-21T07:01:30.403Z,759.00
2023-02-21T07:02:30.411Z,757.00
2023-02-21T07:03:30.501Z,758.00
2023-02-21T07:04:30.500Z,760.00
2023-02-21T07:05:30.513Z,764.00
2023-02-21T07:06:30.560Z,765.00
2023-02-21T07:07:30.606Z,765.00
2023-02-21T07:08:30.651Z,765.00
2023-02-21T07:09:30.725Z,764.00
2023-02-21T07:10:30.851Z,763.00
2023-02-21T07:11:30.783Z,764.00
2023-02-21T07:12:30.812Z,761.00
2023-02-21T07:13:30.855Z,759.00
2023-02-21T07:14:30.893Z,754.00
2023-02-21T07:15:30.933Z,751.00
2023-02-21T07:16:30.992Z,749.00
2023-02-21T07:17:31.048Z,751.00
2023-02-21T07:18:31.816Z,752.00
2023-02-21T07:19:31.117Z,751.00
2023-02-21T07:20:31.169Z,750.00
2023-02-21T07:21:31.200Z,745.00
2023-02-21T07:22:31.272Z,744.00
2023-02-21T07:23:31.291Z,742.00
2023-02-21T07:24:31.337Z,745.00
2023-02-21T07:25:31.456Z,744.00
2023-02-21T07:26:31.428Z,744.00
2023-02-21T07:27:31.460Z,745.00
2023-02-21T07:28:31.506Z,747.00
2023-02-21T07:29:31.557Z,751.00
2023-02-21T07:30:31.672Z,754.00
2023-02-21T07:31:31.827Z,752.00
2023-02-21T07:32:31.694Z,751.00
2023-02-21T07:33:31.731Z,752.00
2023-02-21T07:34:32.313Z,750.00
2023-02-21T07:35:31.857Z,748.00
2023-02-21T07:36:31.872Z,748.00
2023-02-21T07:37:32.001Z,748.00
2023-02-21T07:38:31.954Z,743.00
2023-02-21T07:39:32.001Z,741.00
2023-02-21T07:40:32.042Z,741.00
2023-02-21T07:41:32.087Z,742.00
2023-02-21T07:42:32.118Z,742.00
2023-02-21T07:43:32.168Z,742.00
2023-02-21T07:44:32.209Z,742.00
2023-02-21T07:45:32.230Z,740.00
2023-02-21T07:46:32.380Z,740.00
2023-02-21T07:47:32.311Z,740.00
2023-02-21T07:48:32.398Z,739.00
2023-02-21T07:49:32.381Z,739.00
2023-02-21T07:50:32.428Z,737.00
2023-02-21T07:51:32.467Z,737.00
2023-02-21T07:52:32.513Z,736.00
2023-02-21T07:53:32.553Z,737.00
2023-02-21T07:54:32.584Z,738.00
2023-02-21T07:55:33.326Z,735.00
2023-02-21T07:56:32.670Z,735.00
2023-02-21T07:57:32.712Z,733.00
2023-02-21T07:58:32.811Z,730.00
2023-02-21T07:59:32.790Z,730.00
2023-02-21T08:00:32.840Z,730.00
2023-02-21T08:01:32.904Z,732.00
2023-02-21T08:02:32.905Z,734.00
2023-02-21T08:03:33.015Z,735.00
2023-02-21T08:04:33.040Z,735.00
2023-02-21T08:05:33.044Z,734.00
2023-02-21T08:06:33.848Z,733.00
2023-02-21T08:07:33.105Z,732.00
2023-02-21T08:08:33.143Z,730.00
2023-02-21T08:09:33.171Z,726.00
2023-02-21T08:10:33.208Z,722.00
2023-02-21T08:11:33.231Z,722.00
2023-02-21T08:12:33.283Z,729.00
2023-02-21T08:13:33.303Z,727.00
2023-02-21T08:14:33.429Z,725.00
2023-02-21T08:15:33.368Z,724.00
2023-02-21T08:16:34.881Z,776.00
2023-02-21T08:17:33.426Z,777.00
2023-02-21T08:18:33.457Z,783.00
2023-02-21T08:19:33.497Z,1093.00
2023-02-21T08:20:33.552Z,980.00
2023-02-21T08:21:33.592Z,923.00
2023-02-21T08:22:33.643Z,968.00
2023-02-21T08:23:33.674Z,1003.00
2023-02-21T08:24:33.707Z,1046.00
2023-02-21T08:25:34.347Z,1091.00
2023-02-21T08:26:33.766Z,1120.00
2023-02-21T08:27:33.801Z,1225.00
2023-02-21T08:28:33.817Z,1241.00
2023-02-21T08:29:33.904Z,1251.00
2023-02-21T08:30:33.942Z,1329.00
2023-02-21T08:31:33.906Z,1358.00
2023-02-21T08:32:33.888Z,1428.00
2023-02-21T08:33:33.915Z,1421.00
2023-02-21T08:34:33.943Z,1423.00
2023-02-21T08:35:33.980Z,1424.00
2023-02-21T08:36:34.040Z,1433.00
2023-02-21T08:37:34.089Z,1450.00
2023-02-21T08:38:34.169Z,1552.00
2023-02-21T08:39:34.239Z,1557.00
2023-02-21T08:40:34.288Z,1588.00
2023-02-21T08:41:34.364Z,1589.00
2023-02-21T08:42:34.446Z,1597.00
2023-02-21T08:43:34.506Z,1685.00
2023-02-21T08:44:34.581Z,1726.00
2023-02-21T08:45:34.637Z,1743.00
2023-02-21T08:46:34.845Z,1743.00
2023-02-21T08:47:34.762Z,1465.00
2023-02-21T08:48:34.863Z,1301.00
2023-02-21T08:49:34.912Z,1256.00
2023-02-21T08:50:35.108Z,1198.00
2023-02-21T08:51:35.111Z,1171.00
2023-02-21T08:52:35.045Z,1187.00
2023-02-21T08:53:35.087Z,1155.00
2023-02-21T08:54:35.200Z,1288.00
2023-02-21T08:55:35.132Z,1218.00
2023-02-21T08:56:35.358Z,1239.00
2023-02-21T08:57:35.153Z,1286.00
2023-02-21T08:58:37.774Z,1324.00
2023-02-21T08:59:35.311Z,1353.00
2023-02-21T09:00:35.195Z,1369.00
2023-02-21T09:01:35.226Z,1467.00
2023-02-21T09:02:35.260Z,1513.00
2023-02-21T09:03:35.247Z,1518.00
2023-02-21T09:04:35.228Z,1523.00
2023-02-21T09:05:35.777Z,1536.00
2023-02-21T09:07:35.249Z,1601.00
2023-02-21T09:08:35.337Z,1640.00
2023-02-21T09:09:35.247Z,1657.00
2023-02-21T09:10:35.912Z,2071.00
2023-02-21T09:11:35.361Z,1738.00
2023-02-21T09:12:35.280Z,1723.00
2023-02-21T09:13:35.330Z,1731.00
2023-02-21T09:14:35.267Z,1736.00
2023-02-21T09:15:35.274Z,1761.00
2023-02-21T09:16:35.497Z,1767.00
2023-02-21T09:17:35.298Z,1779.00
2023-02-21T09:18:35.304Z,1752.00
2023-02-21T09:19:35.297Z,1767.00
2023-02-21T09:20:35.296Z,1769.00
2023-02-21T09:21:35.308Z,1765.00
2023-02-21T09:22:35.310Z,1766.00
2023-02-21T09:23:35.318Z,1767.00
2023-02-21T09:24:35.318Z,1770.00
2023-02-21T09:25:35.325Z,1778.00
2023-02-21T09:26:35.339Z,1793.00
2023-02-21T09:27:35.333Z,1806.00
2023-02-21T09:28:35.351Z,1867.00
2023-02-21T09:29:45.391Z,1914.00
2023-02-21T09:31:35.442Z,1969.00
2023-02-21T09:32:35.487Z,1988.00
2023-02-21T09:33:35.516Z,1999.00
2023-02-21T09:35:35.607Z,2137.00
2023-02-21T09:36:35.657Z,2122.00
2023-02-21T09:37:35.708Z,2130.00
2023-02-21T09:38:35.743Z,2204.00
2023-02-21T09:39:35.791Z,2238.00
2023-02-21T09:40:35.827Z,2240.00
2023-02-21T09:41:35.877Z,2297.00
2023-02-21T09:42:35.918Z,2293.00
2023-02-21T09:43:35.952Z,2305.00
2023-02-21T09:44:36.037Z,2309.00
2023-02-21T09:45:36.062Z,2320.00
2023-02-21T09:46:36.050Z,2353.00
2023-02-21T09:47:36.075Z,2386.00
2023-02-21T09:48:36.096Z,2407.00
2023-02-21T09:49:36.141Z,2455.00
2023-02-21T09:50:36.147Z,2509.00
2023-02-21T09:51:36.180Z,2549.00
2023-02-21T09:52:36.192Z,2547.00
2023-02-21T09:54:36.222Z,2544.00
2023-02-21T09:55:36.286Z,2574.00
2023-02-21T09:56:36.284Z,2640.00
2023-02-21T09:57:36.311Z,2639.00
2023-02-21T09:58:36.306Z,2676.00
2023-02-21T09:59:36.323Z,2704.00
2023-02-21T10:16:36.525Z,3100.00
2023-02-21T10:23:36.455Z,2701.00
2023-02-21T10:25:36.470Z,2518.00
2023-02-21T10:26:36.495Z,2433.00
2023-02-21T10:27:36.517Z,2494.00
2023-02-21T10:28:36.548Z,2199.00
2023-02-21T10:29:36.651Z,2099.00
2023-02-21T10:30:36.798Z,2054.00
2023-02-21T10:31:36.784Z,1997.00
2023-02-21T10:32:36.720Z,1820.00
2023-02-21T11:05:41.966Z,934.00
2023-02-21T12:26:41.785Z,970.00
2023-02-21T12:27:41.864Z,974.00
2023-02-21T16:20:52.520Z,1154.00
2023-02-21T16:21:51.764Z,1156.00
2023-02-21T16:23:07.288Z,1155.00
2023-02-21T16:23:52.797Z,1153.00
2023-02-21T16:24:51.815Z,1151.00
2023-02-21T16:25:51.832Z,1151.00
2023-02-21T16:26:51.864Z,1154.00
2023-02-21T16:27:51.920Z,1150.00
2023-02-21T16:28:51.917Z,1151.00
2023-02-21T16:29:51.947Z,1150.00
2023-02-21T16:30:52.042Z,1149.00
2023-02-21T16:31:52.047Z,1148.00
2023-02-21T16:32:52.071Z,1148.00
2023-02-21T16:33:52.085Z,1147.00
2023-02-21T16:34:52.112Z,1149.00
2023-02-21T16:35:52.209Z,1146.00
2023-02-21T16:36:52.180Z,1146.00
2023-02-21T16:37:52.219Z,1145.00
2023-02-21T16:38:52.250Z,1146.00
2023-02-21T16:39:52.288Z,1148.00
2023-02-21T16:40:52.313Z,1146.00
2023-02-21T16:41:52.345Z,1149.00
2023-02-21T16:42:52.379Z,1149.00
2023-02-21T16:43:52.412Z,1148.00
2023-02-21T16:44:52.422Z,1145.00
2023-02-21T16:45:52.463Z,1144.00
2023-02-21T16:46:52.468Z,1141.00
2023-02-21T16:47:52.489Z,1139.00
2023-02-21T16:48:52.521Z,1138.00
2023-02-21T16:49:52.547Z,1138.00
2023-02-21T16:50:52.555Z,1139.00
2023-02-21T16:51:52.579Z,1139.00
2023-02-21T16:52:52.607Z,1139.00
2023-02-21T16:53:52.651Z,1140.00
2023-02-21T16:54:53.539Z,1139.00
2023-02-21T16:55:52.668Z,1138.00
2023-02-21T16:56:52.762Z,1135.00
2023-02-21T16:57:53.891Z,1135.00
2023-02-21T16:58:52.727Z,1139.00
2023-02-21T16:59:52.735Z,1137.00
2023-02-21T17:00:52.757Z,1136.00
2023-02-21T17:01:52.816Z,1133.00
2023-02-21T17:02:52.919Z,1133.00
2023-02-21T17:03:53.965Z,1133.00
2023-02-21T17:04:52.858Z,1133.00
2023-02-21T17:05:52.896Z,1131.00
2023-02-21T17:06:52.915Z,1132.00
2023-02-21T17:07:52.967Z,1132.00
2023-02-21T17:08:53.010Z,1134.00
2023-02-21T17:09:53.957Z,1135.00
2023-02-21T17:10:53.094Z,1137.00
2023-02-21T17:11:53.134Z,1136.00
2023-02-21T17:12:53.259Z,1135.00
2023-02-21T17:13:54.052Z,1133.00
2023-02-21T17:14:53.248Z,1130.00
2023-02-21T17:15:54.693Z,1131.00
2023-02-21T17:16:53.335Z,1130.00
2023-02-21T17:17:54.106Z,1129.00
2023-02-21T17:18:53.418Z,1130.00
2023-02-21T17:19:53.464Z,1130.00
2023-02-21T17:20:53.501Z,1129.00
2023-02-21T17:21:54.013Z,1133.00
2023-02-21T17:22:53.600Z,1129.00
2023-02-21T17:23:53.648Z,1126.00
2023-02-21T17:24:53.689Z,1128.00
2023-02-21T17:25:53.731Z,1126.00
2023-02-21T17:26:53.779Z,1123.00
2023-02-21T17:27:53.903Z,1126.00
2023-02-21T17:28:53.874Z,1124.00
2023-02-21T17:29:53.912Z,1124.00
2023-02-21T17:30:54.032Z,1127.00
2023-02-21T17:45:54.701Z,1116.00
2023-02-21T17:46:54.755Z,1117.00
2023-02-21T17:47:54.847Z,1117.00
2023-02-21T17:48:54.871Z,1113.00
2023-02-21T17:49:54.972Z,1114.00
2023-02-21T17:50:54.972Z,1116.00
2023-02-21T17:51:55.040Z,1118.00
2023-02-21T17:52:55.080Z,1112.00
2023-02-21T17:53:55.144Z,1111.00
2023-02-21T17:54:55.187Z,1110.00
2023-02-21T17:55:55.250Z,1109.00
2023-02-21T17:56:55.308Z,1108.00
2023-02-21T17:57:55.351Z,1107.00
2023-02-21T17:58:55.420Z,1105.00
2023-02-21T17:59:55.513Z,1106.00
2023-02-21T18:00:55.546Z,1103.00
2023-02-21T18:01:55.764Z,1101.00
2023-02-21T18:02:55.662Z,1102.00
2023-02-21T18:03:55.712Z,1105.00
2023-02-21T18:04:55.790Z,1105.00
2023-02-21T18:05:55.845Z,1102.00
2023-02-21T18:07:56.052Z,1097.00
2023-02-21T19:31:01.861Z,1066.00
2023-02-21T19:32:02.109Z,1068.00
2023-02-21T19:33:01.956Z,1071.00
2023-02-21T19:34:02.034Z,1070.00
2023-02-21T19:35:02.113Z,1069.00
2023-02-21T19:36:02.196Z,1067.00
2023-02-21T19:37:02.278Z,1062.00
2023-02-21T19:38:02.355Z,1064.00
2023-02-21T19:39:02.460Z,1063.00
2023-02-21T19:40:02.501Z,1056.00
2023-02-21T19:41:02.593Z,1056.00
2023-02-21T19:42:02.670Z,1054.00
2023-02-21T19:43:03.605Z,1056.00
2023-02-21T19:44:02.827Z,1055.00
2023-02-21T19:45:02.918Z,1054.00
2023-02-21T19:46:03.010Z,1055.00
2023-02-21T19:47:03.070Z,1055.00
2023-02-21T19:48:03.154Z,1052.00
2023-02-21T19:49:03.227Z,1049.00
2023-02-21T19:50:03.312Z,1048.00
2023-02-21T19:51:03.388Z,1047.00
2023-02-21T19:52:03.473Z,1045.00
2023-02-21T19:53:03.556Z,1047.00
2023-02-21T19:54:03.634Z,1047.00
2023-02-21T19:55:03.756Z,1042.00
2023-02-21T19:56:03.784Z,1046.00
2023-02-21T19:57:03.859Z,1048.00
2023-02-21T19:58:03.950Z,1047.00
2023-02-21T19:59:04.017Z,1046.00
2023-02-21T20:00:04.091Z,1047.00
2023-02-21T20:01:04.201Z,1047.00
2023-02-21T20:02:04.262Z,1046.00
2023-02-21T20:03:04.326Z,1045.00
2023-02-21T20:04:04.524Z,1043.00
2023-02-21T20:05:04.482Z,1040.00
2023-02-21T20:06:04.573Z,1039.00
2023-02-21T20:07:04.645Z,1040.00
2023-02-21T20:08:04.722Z,1044.00
2023-02-21T20:09:04.816Z,1043.00
2023-02-21T20:10:04.879Z,1041.00
2023-02-21T20:11:04.954Z,1038.00
2023-02-21T20:12:05.039Z,1036.00
2023-02-21T20:13:05.122Z,1035.00
2023-02-21T20:14:05.213Z,1035.00
2023-02-21T20:15:05.287Z,1034.00
2023-02-21T20:16:05.355Z,1031.00
2023-02-21T20:17:05.435Z,1030.00
2023-02-21T20:18:05.506Z,1031.00
2023-02-21T20:19:05.585Z,1028.00
2023-02-21T20:20:05.661Z,1029.00
2023-02-21T20:21:05.750Z,1030.00
2023-02-21T20:22:05.816Z,1029.00
2023-02-21T20:23:05.897Z,1029.00
2023-02-21T20:24:06.003Z,1030.00
2023-02-21T20:25:06.051Z,1028.00
2023-02-21T20:26:06.127Z,1031.00
2023-02-21T20:27:06.233Z,1029.00
2023-02-21T20:28:06.283Z,1028.00
2023-02-21T20:29:06.368Z,1024.00
2023-02-21T20:30:06.464Z,1023.00
2023-02-21T20:31:06.631Z,1023.00
2023-02-21T20:32:06.600Z,1022.00
2023-02-21T20:33:06.673Z,1022.00
2023-02-21T20:34:06.785Z,1022.00
2023-02-21T20:35:06.896Z,1022.00
2023-02-21T20:36:06.916Z,1020.00
2023-02-21T20:37:07.012Z,1018.00
2023-02-21T20:38:07.624Z,1019.00
2023-02-21T20:39:07.176Z,1017.00
2023-02-21T20:40:07.253Z,1016.00
2023-02-21T20:41:07.339Z,1016.00
2023-02-21T20:42:07.467Z,1018.00
2023-02-21T20:43:07.504Z,1015.00
2023-02-21T20:44:07.597Z,1016.00
2023-02-21T20:45:07.651Z,1014.00
2023-02-21T20:46:10.130Z,1012.00
2023-02-21T20:47:07.748Z,1010.00
2023-02-21T20:48:07.772Z,1011.00
2023-02-21T20:49:07.836Z,1007.00
2023-02-21T20:50:07.862Z,1005.00
2023-02-21T20:51:07.860Z,1009.00
2023-02-21T20:52:07.885Z,1012.00
2023-02-21T20:53:08.141Z,1009.00
2023-02-21T20:54:07.953Z,1008.00
2023-02-21T20:55:07.980Z,1005.00
2023-02-21T20:56:08.006Z,1005.00
2023-02-21T20:57:08.055Z,1006.00
2023-02-21T20:58:08.049Z,1005.00
2023-02-21T20:59:08.635Z,1006.00
2023-02-21T21:00:08.098Z,1006.00
2023-02-21T21:01:08.158Z,1007.00
2023-02-21T21:02:08.144Z,1009.00
2023-02-21T21:03:08.186Z,1006.00
2023-02-21T21:04:08.690Z,1007.00
2023-02-21T21:05:08.638Z,1006.00
2023-02-21T21:06:08.284Z,1004.00
2023-02-21T21:07:08.300Z,1001.00
2023-02-21T21:08:08.312Z,999.00
2023-02-21T21:09:08.328Z,996.00
2023-02-21T21:10:08.364Z,996.00
2023-02-21T21:11:08.430Z,996.00
2023-02-21T21:12:08.423Z,995.00
2023-02-21T21:13:08.443Z,993.00
2023-02-21T21:14:08.483Z,991.00
2023-02-21T21:15:08.513Z,990.00
2023-02-21T21:16:08.608Z,989.00
2023-02-21T21:17:08.550Z,986.00
2023-02-21T21:18:08.625Z,987.00
2023-02-21T21:19:08.707Z,987.00
2023-02-21T21:20:08.796Z,986.00
2023-02-21T21:21:08.888Z,988.00
2023-02-21T21:22:08.997Z,990.00
2023-02-21T21:56:11.780Z,977.00
2023-02-21T21:57:11.934Z,978.00